Time;durP1;ratioP1;P1;durP2;ratioP2;P2;SDS_P1;SDS_P2;PMS_P1;PMS_P2;Temp;Humidity;BMP_temperature;BMP_pressure;BME280_temperature;BME280_humidity;BME280_pressure;Samples;Min_cycle;Max_cycle;Signal;HPM_P1;HPM_P2
2022/08/04 00:00:09;;;;;;;10.32;4.10;;;19.00;99.90;;;;;;5112985;28;20065;-73
2022/08/04 00:02:52;;;;;;;10.25;3.95;;;19.00;99.90;;;;;;5110897;28;20044;-73
2022/08/04 00:05:50;;;;;;;7.65;3.95;;;19.00;99.90;;;;;;5108132;28;20047;-74
2022/08/04 00:08:44;;;;;;;9.07;3.90;;;18.90;99.90;;;;;;5112841;28;20047;-74
2022/08/04 00:11:20;;;;;;;9.90;4.22;;;18.90;99.90;;;;;;5094877;28;20069;-74
2022/08/04 00:14:18;;;;;;;10.65;4.32;;;19.00;99.90;;;;;;5112594;28;20035;-74
2022/08/04 00:16:53;;;;;;;8.60;4.25;;;19.00;99.90;;;;;;5067502;28;20040;-73
2022/08/04 00:19:49;;;;;;;11.93;4.47;;;19.00;99.90;;;;;;5094716;28;20043;-74
2022/08/04 00:22:22;;;;;;;10.43;5.35;;;19.10;99.90;;;;;;5070979;28;20121;-74
2022/08/04 00:24:54;;;;;;;11.57;4.18;;;19.10;99.90;;;;;;5093966;28;20042;-73
2022/08/04 00:27:25;;;;;;;12.70;4.72;;;19.10;99.90;;;;;;5092261;28;20032;-75
2022/08/04 00:29:55;;;;;;;12.32;3.85;;;19.10;99.90;;;;;;5075355;28;20130;-75
2022/08/04 00:32:28;;;;;;;10.25;4.78;;;19.10;99.90;;;;;;5092022;28;20503;-75
2022/08/04 00:34:56;;;;;;;;;;;19.20;99.90;;;;;;5110769;28;20052;-74
2022/08/04 00:37:24;;;;;;;8.90;4.30;;;19.10;99.90;;;;;;5109967;28;19953;-74
2022/08/04 00:39:52;;;;;;;10.18;4.70;;;19.20;99.90;;;;;;5112310;28;20511;-74
2022/08/04 00:42:28;;;;;;;8.95;4.35;;;19.20;99.90;;;;;;5112223;28;20028;-74
2022/08/04 00:44:57;;;;;;;15.80;4.78;;;19.20;99.90;;;;;;5108125;28;20069;-75
2022/08/04 00:47:42;;;;;;;10.68;4.22;;;19.20;99.90;;;;;;5110381;28;20032;-74
2022/08/04 00:50:25;;;;;;;14.48;4.43;;;19.20;99.90;;;;;;5093470;28;20046;-74
2022/08/04 00:53:08;;;;;;;9.02;3.97;;;19.20;99.90;;;;;;5093858;28;20032;-73
2022/08/04 00:55:49;;;;;;;13.23;4.72;;;19.30;99.90;;;;;;5109485;28;20032;-73
2022/08/04 00:58:53;;;;;;;10.57;3.92;;;19.20;99.90;;;;;;5110987;28;20116;-76
2022/08/04 01:01:54;;;;;;;8.60;4.50;;;19.20;99.90;;;;;;5111078;28;20046;-74
2022/08/04 01:05:03;;;;;;;9.18;4.30;;;19.20;99.90;;;;;;5115947;28;20067;-75
2022/08/04 01:07:49;;;;;;;11.95;4.78;;;19.20;99.90;;;;;;5114234;28;20483;-76
2022/08/04 01:10:30;;;;;;;11.75;4.93;;;19.20;99.90;;;;;;5115696;28;20082;-75
2022/08/04 01:13:21;;;;;;;7.63;4.07;;;19.10;99.90;;;;;;5114172;28;20036;-74
2022/08/04 01:16:10;;;;;;;11.43;4.47;;;19.10;99.90;;;;;;5096623;28;20045;-74
2022/08/04 01:19:06;;;;;;;14.20;5.20;;;19.10;99.90;;;;;;5097089;28;20115;-74
2022/08/04 01:21:54;;;;;;;11.15;4.80;;;19.00;99.90;;;;;;5096566;28;20101;-75
2022/08/04 01:24:38;;;;;;;12.68;5.13;;;19.00;99.90;;;;;;5115007;28;20125;-73
2022/08/04 01:27:34;;;;;;;10.75;5.22;;;19.00;99.90;;;;;;5096638;28;20109;-74
2022/08/04 01:30:00;;;;;;;15.68;4.68;;;19.00;99.90;;;;;;5095657;28;20110;-73
2022/08/04 01:32:56;;;;;;;12.32;3.95;;;19.00;99.90;;;;;;5095307;28;20068;-72
2022/08/04 01:35:38;;;;;;;12.00;4.80;;;19.00;99.90;;;;;;5096702;28;20063;-72
2022/08/04 01:38:18;;;;;;;14.68;5.30;;;19.00;99.90;;;;;;5096122;28;20111;-72
2022/08/04 01:40:45;;;;;;;9.00;4.75;;;19.00;99.90;;;;;;5113940;28;20107;-72
2022/08/04 01:43:13;;;;;;;11.07;4.72;;;19.00;99.90;;;;;;5114737;28;20107;-73
2022/08/04 01:45:40;;;;;;;10.52;5.55;;;19.00;99.90;;;;;;5115214;28;20046;-73
2022/08/04 01:48:07;;;;;;;15.40;5.25;;;19.00;99.90;;;;;;5114947;28;20819;-73
2022/08/04 01:50:35;;;;;;;12.60;5.40;;;18.90;99.90;;;;;;5097053;28;20039;-73
2022/08/04 01:53:03;;;;;;;10.07;5.05;;;18.90;99.90;;;;;;5115243;28;20158;-72
2022/08/04 01:55:29;;;;;;;11.23;5.18;;;18.90;99.90;;;;;;5096878;28;20030;-72
2022/08/04 01:57:58;;;;;;;9.82;4.93;;;18.90;99.90;;;;;;5115159;28;20471;-72
2022/08/04 02:00:27;;;;;;;9.97;5.67;;;18.90;99.90;;;;;;5096870;28;20035;-72
2022/08/04 02:02:54;;;;;;;12.50;5.25;;;18.90;99.90;;;;;;5112591;28;20047;-72
2022/08/04 02:05:22;;;;;;;11.63;4.97;;;18.90;99.90;;;;;;5096321;28;20504;-72
2022/08/04 02:08:16;;;;;;;10.52;5.00;;;18.90;99.90;;;;;;5114981;28;20090;-73
2022/08/04 02:10:42;;;;;;;12.95;4.72;;;18.90;99.90;;;;;;5079792;28;20043;-73
2022/08/04 02:13:30;;;;;;;9.70;4.78;;;18.90;99.90;;;;;;5096081;28;20488;-73
2022/08/04 02:16:03;;;;;;;12.07;5.82;;;18.90;99.90;;;;;;5094256;28;20047;-72
2022/08/04 02:18:49;;;;;;;10.55;4.47;;;18.90;99.90;;;;;;5113107;28;20031;-73
2022/08/04 02:21:18;;;;;;;11.30;5.05;;;18.90;99.90;;;;;;5113536;28;20372;-72
2022/08/04 02:23:49;;;;;;;7.10;4.82;;;18.90;99.90;;;;;;5114935;28;20051;-71
2022/08/04 02:26:20;;;;;;;13.65;5.03;;;18.90;99.90;;;;;;5079682;28;20031;-71
2022/08/04 02:28:55;;;;;;;10.02;4.65;;;18.90;99.90;;;;;;5096340;28;20046;-70
2022/08/04 02:31:24;;;;;;;10.38;4.90;;;18.90;99.90;;;;;;5095981;28;20038;-71
2022/08/04 02:34:15;;;;;;;11.02;5.63;;;18.80;99.90;;;;;;5114049;28;20047;-71
2022/08/04 02:36:42;;;;;;;11.98;5.00;;;18.70;99.90;;;;;;5096306;28;20039;-71
2022/08/04 02:39:10;;;;;;;8.30;4.47;;;18.70;99.90;;;;;;5096423;28;20074;-70
2022/08/04 02:41:38;;;;;;;6.20;4.20;;;18.70;99.90;;;;;;5096476;28;20044;-70
2022/08/04 02:44:09;;;;;;;13.15;5.80;;;18.70;99.90;;;;;;5096474;28;20568;-71
2022/08/04 02:46:36;;;;;;;10.48;4.97;;;18.60;99.90;;;;;;5096139;28;20184;-71
2022/08/04 02:49:06;;;;;;;8.40;5.30;;;18.60;99.90;;;;;;5079505;28;20066;-71
2022/08/04 02:51:42;;;;;;;11.43;5.00;;;18.60;99.90;;;;;;5079473;28;20035;-70
2022/08/04 02:54:08;;;;;;;13.20;5.05;;;18.60;99.90;;;;;;5114289;28;20353;-70
2022/08/04 02:56:36;;;;;;;10.38;5.50;;;18.50;99.90;;;;;;5113240;28;20036;-71
2022/08/04 02:59:09;;;;;;;11.15;4.80;;;18.50;99.90;;;;;;5113265;28;20100;-70
2022/08/04 03:01:35;;;;;;;13.40;4.53;;;18.50;99.90;;;;;;5110717;28;20487;-70
2022/08/04 03:04:01;;;;;;;8.60;5.57;;;18.50;99.90;;;;;;5112859;28;20670;-71
2022/08/04 03:06:51;;;;;;;11.63;4.97;;;18.40;99.90;;;;;;5112718;28;20139;-71
2022/08/04 03:09:20;;;;;;;11.15;5.25;;;18.40;99.90;;;;;;5114124;28;20055;-71
2022/08/04 03:12:16;;;;;;;10.40;5.45;;;18.40;99.90;;;;;;5113043;28;20153;-71
2022/08/04 03:14:57;;;;;;;6.75;4.68;;;18.30;99.90;;;;;;5096090;28;20088;-71
2022/08/04 03:17:54;;;;;;;13.32;5.10;;;18.20;99.90;;;;;;5112931;28;20046;-71
2022/08/04 03:21:00;;;;;;;7.90;4.05;;;18.20;99.90;;;;;;5095611;28;20036;-71
2022/08/04 03:23:57;;;;;;;7.15;4.00;;;18.10;99.90;;;;;;5113965;28;20114;-71
2022/08/04 03:26:51;;;;;;;12.20;5.18;;;18.10;99.90;;;;;;5111946;28;20051;-71
2022/08/04 03:29:46;;;;;;;10.40;5.60;;;18.00;99.90;;;;;;5113807;28;20044;-71
2022/08/04 03:32:18;;;;;;;9.93;5.30;;;18.00;99.90;;;;;;5093471;28;20039;-71
2022/08/04 03:35:08;;;;;;;14.43;6.97;;;17.90;99.90;;;;;;5113858;28;20035;-71
2022/08/04 03:37:59;;;;;;;12.32;5.65;;;17.90;99.90;;;;;;5105432;28;20071;-71
2022/08/04 03:40:51;;;;;;;12.57;6.13;;;17.90;99.90;;;;;;5095349;28;20118;-71
2022/08/04 03:43:20;;;;;;;15.68;5.30;;;17.90;99.90;;;;;;5093123;28;20074;-71
2022/08/04 03:46:00;;;;;;;6.68;4.10;;;17.90;99.90;;;;;;5075144;28;20047;-71
2022/08/04 03:48:26;;;;;;;6.53;4.85;;;17.90;99.90;;;;;;5093095;28;20040;-70
2022/08/04 03:54:28;;;;;;;9.60;5.15;;;17.70;99.90;;;;;;5093197;28;20047;-70
2022/08/04 03:57:16;;;;;;;16.45;5.50;;;17.70;99.90;;;;;;5091642;28;20051;-71
2022/08/04 03:59:53;;;;;;;11.75;5.90;;;17.70;99.90;;;;;;5091947;28;20059;-71
2022/08/04 04:02:52;;;;;;;8.27;5.50;;;17.70;99.90;;;;;;5090740;28;20048;-71
2022/08/04 04:05:20;;;;;;;10.38;4.40;;;17.70;99.90;;;;;;5091872;28;20048;-70
2022/08/04 04:08:07;;;;;;;11.55;5.70;;;17.70;99.90;;;;;;5074615;28;20138;-70
2022/08/04 04:10:39;;;;;;;8.60;5.40;;;17.70;99.90;;;;;;5092848;28;20044;-70
2022/08/04 04:13:30;;;;;;;9.85;4.60;;;17.70;99.90;;;;;;5091402;28;20043;-70
2022/08/04 04:16:15;;;;;;;11.23;5.53;;;17.70;99.90;;;;;;5090681;28;20052;-70
2022/08/04 04:19:21;;;;;;;14.85;6.35;;;17.70;99.90;;;;;;5091239;28;20127;-70
2022/08/04 04:22:02;;;;;;;9.38;5.10;;;17.80;99.90;;;;;;5093862;28;20062;-65
2022/08/04 04:25:03;;;;;;;14.43;5.60;;;17.70;99.90;;;;;;5094727;28;20048;-65
2022/08/04 04:27:47;;;;;;;11.25;5.25;;;17.70;99.90;;;;;;5090080;28;20071;-66
2022/08/04 04:30:30;;;;;;;8.18;4.00;;;17.70;99.90;;;;;;5111567;28;20130;-65
2022/08/04 04:33:11;;;;;;;15.75;6.35;;;17.70;99.90;;;;;;5109286;28;20682;-65
2022/08/04 04:35:45;;;;;;;11.07;5.72;;;17.70;99.90;;;;;;5111924;28;20055;-65
2022/08/04 04:38:17;;;;;;;12.75;5.97;;;17.80;99.90;;;;;;5114702;28;20036;-65
2022/08/04 04:40:47;;;;;;;14.10;5.40;;;17.80;99.90;;;;;;5116927;28;20040;-65
2022/08/04 04:43:41;;;;;;;10.93;5.82;;;17.90;99.90;;;;;;5116593;28;20069;-65
2022/08/04 04:46:42;;;;;;;11.85;5.22;;;17.90;99.90;;;;;;5115893;28;20039;-65
2022/08/04 04:49:34;;;;;;;10.13;4.57;;;18.00;99.90;;;;;;5061926;28;20043;-65
2022/08/04 04:52:23;;;;;;;14.60;6.32;;;18.00;99.90;;;;;;5114385;28;20468;-65
2022/08/04 04:55:20;;;;;;;15.18;6.75;;;18.00;99.90;;;;;;5098459;28;20040;-65
2022/08/04 04:57:50;;;;;;;11.73;6.47;;;18.10;99.90;;;;;;5116528;28;20039;-65
2022/08/04 05:00:17;;;;;;;16.02;6.95;;;18.20;99.90;;;;;;5115667;28;20039;-65
2022/08/04 05:03:06;;;;;;;12.10;6.85;;;18.30;99.90;;;;;;5113012;28;20050;-65
2022/08/04 05:05:56;;;;;;;18.37;7.10;;;18.40;99.90;;;;;;5116264;28;20484;-67
2022/08/04 05:08:28;;;;;;;16.70;7.10;;;18.60;99.90;;;;;;5114928;28;20837;-67
2022/08/04 05:11:16;;;;;;;14.38;7.65;;;18.70;99.90;;;;;;5115116;28;20044;-67
2022/08/04 05:13:46;;;;;;;11.73;6.78;;;18.80;99.90;;;;;;5116185;28;20090;-67
2022/08/04 05:16:30;;;;;;;13.25;7.53;;;18.90;99.90;;;;;;5098034;28;20550;-67
2022/08/04 05:19:16;;;;;;;11.80;7.78;;;19.10;99.90;;;;;;5114839;28;20046;-67
2022/08/04 05:22:18;;;;;;;12.45;7.22;;;19.30;99.90;;;;;;5115232;28;20130;-67
2022/08/04 05:24:50;;;;;;;11.73;7.20;;;19.40;99.90;;;;;;5070558;28;20047;-67
2022/08/04 05:27:21;;;;;;;13.68;7.78;;;19.50;99.90;;;;;;5115798;28;20434;-67
2022/08/04 05:29:53;;;;;;;12.95;7.60;;;19.60;99.90;;;;;;5116224;28;20050;-68
2022/08/04 05:32:25;;;;;;;19.33;8.35;;;19.70;99.90;;;;;;5112393;28;20031;-68
2022/08/04 05:35:06;;;;;;;9.90;7.32;;;19.80;99.90;;;;;;5116111;28;20036;-67
2022/08/04 05:37:34;;;;;;;13.93;8.32;;;19.90;99.90;;;;;;5097618;28;20040;-67
2022/08/04 05:40:03;;;;;;;16.67;8.43;;;20.00;99.90;;;;;;5114582;28;20132;-67
2022/08/04 05:42:30;;;;;;;;;;;20.10;99.90;;;;;;5097611;28;20122;-67
2022/08/04 05:44:58;;;;;;;14.55;8.05;;;20.30;99.90;;;;;;5116009;28;20023;-67
2022/08/04 05:47:24;;;;;;;15.38;8.30;;;20.40;99.90;;;;;;5114322;28;20041;-67
2022/08/04 05:49:51;;;;;;;14.27;7.72;;;20.60;99.90;;;;;;5115622;28;20075;-66
2022/08/04 05:52:18;;;;;;;12.02;7.93;;;20.80;99.90;;;;;;5115594;28;20039;-69
2022/08/04 05:54:45;;;;;;;12.80;7.53;;;21.00;99.90;;;;;;5115324;28;20494;-67
2022/08/04 05:57:12;;;;;;;13.82;7.70;;;21.20;99.90;;;;;;5114514;28;20036;-68
2022/08/04 05:59:41;;;;;;;13.57;7.63;;;21.30;99.90;;;;;;5115535;28;20044;-67
2022/08/04 06:02:09;;;;;;;14.25;7.97;;;21.50;99.90;;;;;;5112030;28;20052;-67
2022/08/04 06:04:38;;;;;;;17.48;6.95;;;21.80;99.90;;;;;;5096977;28;20075;-66
2022/08/04 06:07:05;;;;;;;9.90;6.43;;;22.00;99.90;;;;;;5115210;28;20051;-68
2022/08/04 06:09:31;;;;;;;11.35;6.78;;;22.10;99.90;;;;;;5115307;28;20097;-68
2022/08/04 06:12:10;;;;;;;12.45;6.78;;;22.30;99.90;;;;;;5114255;28;20039;-68
2022/08/04 06:14:42;;;;;;;13.37;6.20;;;22.40;99.90;;;;;;5114252;28;20141;-68
2022/08/04 06:17:13;;;;;;;11.77;5.70;;;22.60;99.90;;;;;;5113953;28;20089;-68
2022/08/04 06:19:40;;;;;;;9.50;5.70;;;22.80;99.90;;;;;;5113815;28;20047;-68
2022/08/04 06:22:09;;;;;;;12.00;5.72;;;22.90;99.90;;;;;;5113702;28;20047;-68
2022/08/04 06:24:38;;;;;;;15.02;6.13;;;23.10;99.90;;;;;;5093337;28;20047;-68
2022/08/04 06:27:05;;;;;;;9.45;5.45;;;23.20;99.90;;;;;;5093361;28;20496;-67
2022/08/04 06:29:37;;;;;;;12.27;5.65;;;23.30;99.90;;;;;;5093130;28;20044;-67
2022/08/04 06:32:23;;;;;;;10.43;7.32;;;23.40;99.90;;;;;;5091369;28;20036;-67
2022/08/04 06:34:58;;;;;;;16.73;8.23;;;23.50;99.90;;;;;;5093417;28;20097;-67
2022/08/04 06:37:26;;;;;;;16.17;8.25;;;23.60;99.90;;;;;;5094397;28;20036;-68
2022/08/04 06:39:52;;;;;;;15.52;7.63;;;23.60;99.90;;;;;;5092994;28;20107;-68
2022/08/04 06:42:21;;;;;;;10.77;7.40;;;23.70;99.90;;;;;;5105340;28;20044;-68
2022/08/04 06:44:51;;;;;;;13.07;8.55;;;23.70;99.90;;;;;;5113565;28;20079;-68
2022/08/04 06:47:19;;;;;;;12.90;9.10;;;23.70;99.90;;;;;;5114538;28;20077;-68
2022/08/04 06:49:50;;;;;;;12.40;9.23;;;23.70;99.90;;;;;;5113187;28;20043;-67
2022/08/04 06:52:18;;;;;;;12.65;8.45;;;23.70;99.90;;;;;;5113212;28;20075;-67
2022/08/04 06:54:45;;;;;;;13.75;8.27;;;23.90;99.90;;;;;;5112993;28;20104;-67
2022/08/04 06:57:15;;;;;;;10.13;6.68;;;24.00;99.90;;;;;;5114496;28;20031;-68
2022/08/04 06:59:48;;;;;;;9.73;6.47;;;24.10;99.90;;;;;;5112227;28;20480;-68
2022/08/04 07:02:17;;;;;;;11.85;8.15;;;24.40;99.90;;;;;;5110207;28;20408;-68
2022/08/04 07:04:43;;;;;;;;;;;24.50;99.90;;;;;;5113459;28;20067;-68
2022/08/04 07:07:11;;;;;;;13.60;7.30;;;24.60;99.90;;;;;;5113644;28;19974;-68
2022/08/04 07:09:38;;;;;;;12.23;7.60;;;24.70;99.90;;;;;;5095439;28;20044;-67
2022/08/04 07:12:06;;;;;;;12.27;7.15;;;24.70;99.90;;;;;;5113983;28;20032;-68
2022/08/04 07:14:35;;;;;;;10.15;7.15;;;24.80;99.90;;;;;;5095335;28;20475;-66
2022/08/04 07:17:07;;;;;;;9.80;6.38;;;25.00;99.90;;;;;;5095823;28;20361;-67
2022/08/04 07:19:34;;;;;;;15.82;6.70;;;25.20;99.90;;;;;;5095680;28;20105;-67
2022/08/04 07:22:01;;;;;;;14.95;6.07;;;25.40;99.90;;;;;;5113786;28;20058;-67
2022/08/04 07:24:32;;;;;;;12.77;6.40;;;25.50;99.90;;;;;;5095626;28;20055;-68
2022/08/04 07:26:58;;;;;;;13.60;5.82;;;25.50;99.90;;;;;;5113954;28;20051;-67
2022/08/04 07:29:25;;;;;;;10.38;5.88;;;25.40;99.90;;;;;;5113462;28;20047;-67
2022/08/04 07:31:53;;;;;;;11.00;6.53;;;25.40;99.90;;;;;;5093437;28;20114;-67
2022/08/04 07:34:20;;;;;;;14.82;6.03;;;25.20;99.90;;;;;;5113564;28;20490;-67
2022/08/04 07:36:50;;;;;;;10.40;5.47;;;25.30;99.90;;;;;;5093527;28;20039;-67
2022/08/04 07:39:16;;;;;;;9.70;5.18;;;25.50;99.90;;;;;;5078361;28;20050;-66
2022/08/04 07:41:42;;;;;;;7.25;5.32;;;25.50;99.90;;;;;;5095119;28;20036;-66
2022/08/04 07:44:14;;;;;;;7.85;4.88;;;25.60;99.90;;;;;;5095229;28;20430;-66
2022/08/04 07:46:41;;;;;;;6.82;4.38;;;25.60;99.90;;;;;;5094979;28;20043;-66
2022/08/04 07:49:07;;;;;;;9.30;5.13;;;25.60;99.90;;;;;;5077925;28;20058;-66
2022/08/04 07:51:34;;;;;;;9.60;5.22;;;25.60;99.90;;;;;;5110098;28;20051;-66
2022/08/04 07:54:04;;;;;;;8.95;5.13;;;25.60;99.90;;;;;;5074458;28;20054;-66
2022/08/04 07:56:35;;;;;;;9.70;5.28;;;25.60;99.90;;;;;;5108192;28;20451;-66
2022/08/04 07:59:05;;;;;;;7.18;4.65;;;25.50;99.90;;;;;;5094944;28;20043;-66
2022/08/04 08:01:35;;;;;;;8.85;5.72;;;25.40;99.90;;;;;;5093341;28;20046;-67
2022/08/04 08:04:07;;;;;;;10.88;4.53;;;25.30;99.90;;;;;;5113083;28;20040;-66
2022/08/04 08:06:39;;;;;;;8.88;4.40;;;25.30;99.90;;;;;;5077719;28;20051;-66
2022/08/04 08:09:11;;;;;;;9.13;4.30;;;25.30;99.90;;;;;;5113174;28;20039;-66
2022/08/04 08:11:39;;;;;;;6.25;4.10;;;25.30;99.90;;;;;;5116589;28;20675;-66
2022/08/04 08:14:07;;;;;;;7.25;3.42;;;25.30;99.90;;;;;;5119674;28;20480;-66
2022/08/04 08:16:35;;;;;;;7.78;4.65;;;25.30;99.90;;;;;;5101293;28;20126;-66
2022/08/04 08:19:01;;;;;;;7.18;4.20;;;25.30;99.90;;;;;;5119548;28;20043;-66
2022/08/04 08:21:28;;;;;;;9.55;4.25;;;25.30;99.90;;;;;;5119565;28;20131;-66
2022/08/04 08:23:54;;;;;;;11.52;4.03;;;25.40;99.90;;;;;;5101441;28;20067;-66
2022/08/04 08:26:20;;;;;;;6.25;3.97;;;25.30;99.90;;;;;;5084602;28;20489;-66
2022/08/04 08:28:47;;;;;;;7.70;4.63;;;25.40;99.90;;;;;;5084900;28;20075;-66
2022/08/04 08:31:13;;;;;;;11.02;3.92;;;25.60;99.90;;;;;;5055357;28;20039;-66
2022/08/04 08:33:39;;;;;;;9.73;4.30;;;25.60;99.90;;;;;;5088666;28;20024;-66
2022/08/04 08:36:17;;;;;;;6.63;3.95;;;25.90;99.90;;;;;;5097986;28;20140;-67
2022/08/04 08:39:05;;;;;;;5.95;3.38;;;26.20;99.90;;;;;;5099211;28;20039;-67
2022/08/04 08:42:07;;;;;;;5.78;3.25;;;26.40;99.90;;;;;;5087078;28;20073;-66
2022/08/04 08:44:36;;;;;;;6.20;2.88;;;26.40;99.90;;;;;;5101707;28;20047;-66
2022/08/04 08:47:22;;;;;;;7.07;3.00;;;26.40;99.90;;;;;;5101758;28;20051;-66
2022/08/04 08:50:05;;;;;;;5.60;2.75;;;26.50;99.90;;;;;;5080986;28;20126;-66
2022/08/04 08:53:01;;;;;;;6.78;2.65;;;26.60;99.90;;;;;;5081240;28;20067;-66
2022/08/04 08:55:34;;;;;;;7.68;3.20;;;26.90;99.90;;;;;;5080783;28;20040;-66
2022/08/04 08:58:08;;;;;;;6.65;2.38;;;27.10;99.90;;;;;;5099061;28;20101;-66
2022/08/04 09:01:05;;;;;;;10.40;2.78;;;27.20;99.90;;;;;;5080473;28;20044;-67
2022/08/04 09:04:02;;;;;;;7.22;2.25;;;27.40;99.90;;;;;;5088669;28;20048;-66
2022/08/04 09:06:50;;;;;;;6.15;2.15;;;27.80;99.90;;;;;;5094963;28;20134;-66
2022/08/04 09:09:38;;;;;;;7.10;2.17;;;28.10;99.90;;;;;;5119273;28;20052;-66
2022/08/04 09:12:47;;;;;;;9.07;1.92;;;28.40;99.90;;;;;;5084475;28;20672;-66
2022/08/04 09:15:26;;;;;;;8.18;2.65;;;28.50;99.90;;;;;;5118502;28;20122;-66
2022/08/04 09:18:03;;;;;;;6.18;2.25;;;28.60;99.90;;;;;;5099991;28;20071;-67
2022/08/04 09:20:43;;;;;;;6.22;2.25;;;28.80;99.90;;;;;;5119076;28;20043;-67
2022/08/04 09:23:46;;;;;;;5.50;2.13;;;28.90;99.90;;;;;;5098436;28;20043;-66
2022/08/04 09:26:20;;;;;;;5.80;2.00;;;29.10;99.90;;;;;;5080450;28;20625;-68
2022/08/04 09:29:06;;;;;;;5.50;2.38;;;29.20;99.90;;;;;;5078895;28;20391;-65
2022/08/04 09:32:00;;;;;;;9.52;3.22;;;29.10;99.90;;;;;;5095590;28;20035;-67
2022/08/04 09:34:55;;;;;;;6.68;1.83;;;29.10;99.90;;;;;;5095006;28;20028;-68
2022/08/04 09:37:43;;;;;;;5.72;1.58;;;28.90;99.90;;;;;;5079923;28;20438;-67
2022/08/04 09:40:25;;;;;;;4.50;1.92;;;28.90;99.90;;;;;;5116078;28;20449;-66
2022/08/04 09:42:57;;;;;;;5.78;1.95;;;28.90;99.90;;;;;;5113409;27;20484;-67
2022/08/04 09:45:47;;;;;;;3.17;1.90;;;29.00;99.90;;;;;;5095297;28;20366;-67
2022/08/04 09:48:38;;;;;;;7.57;1.58;;;29.10;99.90;;;;;;5088358;28;20032;-68
2022/08/04 09:51:28;;;;;;;3.83;1.60;;;29.10;99.90;;;;;;5115485;28;20057;-68
2022/08/04 09:54:04;;;;;;;6.18;1.77;;;29.40;99.90;;;;;;5097031;28;20046;-67
2022/08/04 09:57:07;;;;;;;5.32;1.67;;;29.50;99.90;;;;;;5115550;28;20040;-68
2022/08/04 09:59:40;;;;;;;4.10;1.20;;;29.60;99.90;;;;;;5042116;28;20495;-68
2022/08/04 10:02:10;;;;;;;3.08;1.17;;;29.60;99.90;;;;;;5097032;28;20035;-68
2022/08/04 10:04:39;;;;;;;2.75;1.20;;;29.50;99.90;;;;;;5114356;27;20114;-69
2022/08/04 10:07:29;;;;;;;3.50;1.30;;;29.50;99.90;;;;;;5115044;28;20058;-69
2022/08/04 10:10:18;;;;;;;3.45;1.00;;;29.40;99.90;;;;;;5096822;28;20050;-68
2022/08/04 10:13:04;;;;;;;2.30;0.90;;;29.10;99.90;;;;;;5115068;28;20067;-67
2022/08/04 10:15:56;;;;;;;3.50;1.27;;;28.80;99.90;;;;;;5096878;28;20092;-69
2022/08/04 10:18:34;;;;;;;3.90;1.17;;;29.10;99.90;;;;;;5096060;28;20171;-66
2022/08/04 10:21:18;;;;;;;2.20;0.90;;;29.20;99.90;;;;;;5096565;28;20044;-67
2022/08/04 10:24:29;;;;;;;4.35;1.23;;;29.20;99.90;;;;;;5096836;28;20429;-66
2022/08/04 10:27:10;;;;;;;1.63;0.80;;;29.10;99.90;;;;;;5096922;28;20117;-67
2022/08/04 10:29:44;;;;;;;3.03;1.10;;;29.20;99.90;;;;;;5076189;28;20052;-68
2022/08/04 10:32:33;;;;;;;2.05;1.02;;;29.30;99.90;;;;;;5063379;28;20111;-68
2022/08/04 10:35:09;;;;;;;3.42;1.15;;;29.50;99.90;;;;;;5073364;28;20167;-68
2022/08/04 10:37:48;;;;;;;2.45;1.10;;;29.40;99.90;;;;;;5072778;28;20090;-67
2022/08/04 10:40:35;;;;;;;2.60;1.08;;;29.20;99.90;;;;;;5060968;28;20877;-66
2022/08/04 10:43:05;;;;;;;3.55;1.38;;;29.00;99.90;;;;;;5075116;28;20042;-66
2022/08/04 10:45:55;;;;;;;4.32;1.33;;;28.80;99.90;;;;;;5060710;28;20054;-67
2022/08/04 10:48:42;;;;;;;2.67;1.10;;;28.70;99.90;;;;;;5059902;28;20097;-68
2022/08/04 10:51:24;;;;;;;2.50;0.98;;;28.40;99.70;;;;;;5103988;28;20075;-67
2022/08/04 10:53:56;;;;;;;2.28;1.33;;;28.20;99.40;;;;;;5078296;28;20063;-67
2022/08/04 10:56:36;;;;;;;3.85;1.10;;;28.10;99.90;;;;;;5076085;28;20036;-67
2022/08/04 10:59:13;;;;;;;3.47;1.13;;;28.10;99.70;;;;;;5101140;28;20032;-67
2022/08/04 11:01:43;;;;;;;3.33;1.17;;;27.90;99.60;;;;;;5074264;28;20032;-67
2022/08/04 11:04:34;;;;;;;3.10;1.05;;;27.70;99.90;;;;;;5060729;28;20046;-67
2022/08/04 11:07:00;;;;;;;3.65;1.23;;;27.60;99.90;;;;;;5093162;28;20105;-67
2022/08/04 11:09:28;;;;;;;2.28;1.15;;;27.30;99.90;;;;;;5095313;28;20595;-67
2022/08/04 11:12:08;;;;;;;4.25;1.10;;;27.30;99.90;;;;;;5094968;28;20097;-68
2022/08/04 11:14:56;;;;;;;3.72;0.95;;;27.20;99.90;;;;;;5093645;28;20030;-67
2022/08/04 11:17:32;;;;;;;2.10;0.88;;;27.10;99.90;;;;;;5093912;28;20383;-67
2022/08/04 11:20:04;;;;;;;5.13;0.93;;;26.90;99.90;;;;;;5095206;28;20043;-68
2022/08/04 11:22:37;;;;;;;3.35;1.00;;;26.90;99.90;;;;;;5095541;28;20039;-68
2022/08/04 11:25:18;;;;;;;2.67;1.30;;;26.80;99.90;;;;;;5095559;28;20541;-67
2022/08/04 11:28:16;;;;;;;2.97;1.33;;;26.80;99.90;;;;;;5095432;28;20123;-67
2022/08/04 11:30:50;;;;;;;2.92;1.00;;;26.80;99.90;;;;;;5095195;28;20055;-67
2022/08/04 11:33:44;;;;;;;2.42;1.10;;;26.70;99.90;;;;;;5090593;28;20048;-69
2022/08/04 11:36:17;;;;;;;2.63;0.90;;;26.60;99.90;;;;;;5063346;28;20533;-67
2022/08/04 11:38:48;;;;;;;2.97;0.90;;;26.50;99.90;;;;;;5095062;28;20073;-68
2022/08/04 11:41:29;;;;;;;1.42;0.80;;;26.40;99.90;;;;;;5095340;28;20039;-66
2022/08/04 11:43:57;;;;;;;3.05;0.75;;;26.40;99.90;;;;;;5095142;28;20051;-67
2022/08/04 11:46:26;;;;;;;3.30;0.90;;;26.40;99.90;;;;;;5113118;28;20043;-67
2022/08/04 11:49:04;;;;;;;4.55;1.10;;;26.40;99.90;;;;;;5095062;28;20046;-67
2022/08/04 11:51:32;;;;;;;3.40;0.98;;;26.40;99.90;;;;;;5094957;28;20480;-67
2022/08/04 11:54:00;;;;;;;3.78;1.15;;;26.20;99.90;;;;;;5095111;28;20050;-68
2022/08/04 11:56:26;;;;;;;1.70;1.10;;;26.20;99.90;;;;;;5113461;28;20043;-67
2022/08/04 11:58:55;;;;;;;3.25;1.20;;;26.10;99.90;;;;;;5078177;28;20698;-66
2022/08/04 12:01:47;;;;;;;4.40;1.10;;;26.10;99.90;;;;;;5094879;28;20043;-67
2022/08/04 12:04:34;;;;;;;4.03;1.20;;;26.00;99.90;;;;;;5094880;28;20123;-66
2022/08/04 12:07:20;;;;;;;4.60;1.27;;;25.90;99.90;;;;;;5077881;28;20091;-67
2022/08/04 12:10:10;;;;;;;3.53;1.17;;;25.70;99.90;;;;;;5069778;28;20040;-67
2022/08/04 12:12:53;;;;;;;3.42;1.48;;;25.60;99.90;;;;;;5093071;28;20032;-66
2022/08/04 12:15:29;;;;;;;3.42;1.40;;;25.50;99.90;;;;;;5092644;28;20492;-66
2022/08/04 12:18:04;;;;;;;4.20;1.58;;;25.50;99.90;;;;;;5074670;28;20488;-67
2022/08/04 12:20:35;;;;;;;1.70;1.02;;;25.60;99.90;;;;;;5084210;28;20101;-67
2022/08/04 12:23:04;;;;;;;2.92;1.30;;;25.70;99.90;;;;;;5092688;28;20055;-67
2022/08/04 12:25:33;;;;;;;4.00;1.10;;;25.80;99.90;;;;;;5074730;28;20093;-68
2022/08/04 12:28:11;;;;;;;3.28;1.10;;;25.80;99.90;;;;;;5092761;28;20127;-67
2022/08/04 12:30:47;;;;;;;4.25;1.40;;;25.90;99.90;;;;;;5112802;28;20059;-66
2022/08/04 12:33:44;;;;;;;2.25;1.20;;;26.10;99.90;;;;;;5036062;28;20409;-67
2022/08/04 12:36:29;;;;;;;3.25;1.30;;;26.20;99.90;;;;;;5071653;28;20087;-67
2022/08/04 12:39:07;;;;;;;3.45;1.20;;;26.50;99.90;;;;;;5072239;28;20044;-67
2022/08/04 12:41:41;;;;;;;3.53;1.13;;;26.70;99.90;;;;;;5066579;28;20426;-68
2022/08/04 12:44:11;;;;;;;2.72;1.25;;;26.90;99.60;;;;;;5077750;28;20235;-66
2022/08/04 12:46:39;;;;;;;3.30;1.27;;;26.90;99.80;;;;;;5112833;28;20123;-66
2022/08/04 12:49:06;;;;;;;4.03;1.00;;;26.90;99.90;;;;;;5074485;28;20126;-66
2022/08/04 12:51:44;;;;;;;3.10;0.93;;;27.10;99.90;;;;;;5082447;28;20040;-68
2022/08/04 12:54:11;;;;;;;2.58;1.52;;;27.30;99.40;;;;;;5098797;28;20496;-68
2022/08/04 12:56:39;;;;;;;3.53;1.10;;;27.50;99.90;;;;;;5081522;28;20042;-68
2022/08/04 12:59:07;;;;;;;4.87;1.17;;;27.60;99.70;;;;;;5105086;28;20427;-67
2022/08/04 13:01:34;;;;;;;1.98;0.80;;;27.60;98.00;;;;;;5079727;28;20047;-67
2022/08/04 13:04:11;;;;;;;2.70;1.00;;;27.60;98.50;;;;;;5078940;28;20126;-67
2022/08/04 13:06:38;;;;;;;2.63;1.27;;;27.50;98.90;;;;;;5079766;28;20052;-67
2022/08/04 13:09:13;;;;;;;2.22;0.80;;;27.40;99.10;;;;;;5085843;28;20131;-68
2022/08/04 13:11:52;;;;;;;3.90;1.35;;;27.40;99.70;;;;;;5115596;28;20036;-69
2022/08/04 13:14:20;;;;;;;3.40;0.80;;;27.30;98.60;;;;;;5097081;28;20096;-67
2022/08/04 13:16:46;;;;;;;3.75;1.00;;;27.30;97.60;;;;;;5115313;28;20037;-67
2022/08/04 13:19:13;;;;;;;4.70;1.00;;;27.30;98.30;;;;;;5115438;28;20046;-67
2022/08/04 13:21:43;;;;;;;3.40;1.10;;;27.30;98.10;;;;;;5115251;28;20313;-68
2022/08/04 13:24:14;;;;;;;2.42;1.00;;;27.40;98.40;;;;;;5096867;28;20129;-68
2022/08/04 13:26:58;;;;;;;3.17;1.05;;;27.40;98.80;;;;;;5115134;28;20077;-67
2022/08/04 13:29:31;;;;;;;3.70;0.98;;;27.30;98.20;;;;;;5096439;28;20043;-68
2022/08/04 13:31:58;;;;;;;3.75;1.23;;;27.10;99.20;;;;;;5075745;28;20044;-68
2022/08/04 13:34:25;;;;;;;2.58;1.00;;;27.00;99.60;;;;;;5075056;28;20067;-66
2022/08/04 13:36:54;;;;;;;2.53;0.93;;;26.90;99.70;;;;;;5046953;28;20079;-67